sensor_id;sensor_type;location;lat;lon;timestamp;temperature;humidity
19847;DHT22;10084;50.518;8.588;2024-03-06T00:00:57;8.50;83.80
19847;DHT22;10084;50.518;8.588;2024-03-06T00:03:23;8.50;83.60
19847;DHT22;10084;50.518;8.588;2024-03-06T00:05:49;8.50;83.40
19847;DHT22;10084;50.518;8.588;2024-03-06T00:08:15;8.40;83.40
19847;DHT22;10084;50.518;8.588;2024-03-06T00:10:41;8.40;84.20
19847;DHT22;10084;50.518;8.588;2024-03-06T00:13:08;8.40;83.60
19847;DHT22;10084;50.518;8.588;2024-03-06T00:15:33;8.40;83.70
19847;DHT22;10084;50.518;8.588;2024-03-06T00:17:59;8.30;83.70
19847;DHT22;10084;50.518;8.588;2024-03-06T00:20:26;8.30;83.90
19847;DHT22;10084;50.518;8.588;2024-03-06T00:22:52;8.30;84.00
19847;DHT22;10084;50.518;8.588;2024-03-06T00:25:18;8.30;84.00
19847;DHT22;10084;50.518;8.588;2024-03-06T00:27:43;8.30;84.10
19847;DHT22;10084;50.518;8.588;2024-03-06T00:30:09;8.30;84.00
19847;DHT22;10084;50.518;8.588;2024-03-06T00:32:36;8.30;84.00
19847;DHT22;10084;50.518;8.588;2024-03-06T00:35:02;8.30;84.00
19847;DHT22;10084;50.518;8.588;2024-03-06T00:37:29;8.30;84.10
19847;DHT22;10084;50.518;8.588;2024-03-06T00:39:55;8.30;84.10
19847;DHT22;10084;50.518;8.588;2024-03-06T00:42:21;8.20;84.10
19847;DHT22;10084;50.518;8.588;2024-03-06T00:44:47;8.20;84.10
19847;DHT22;10084;50.518;8.588;2024-03-06T00:47:12;8.20;84.20
19847;DHT22;10084;50.518;8.588;2024-03-06T00:49:38;8.20;84.30
19847;DHT22;10084;50.518;8.588;2024-03-06T00:52:04;8.20;84.50
19847;DHT22;10084;50.518;8.588;2024-03-06T00:54:30;8.20;84.50
19847;DHT22;10084;50.518;8.588;2024-03-06T00:56:56;8.20;84.40
19847;DHT22;10084;50.518;8.588;2024-03-06T00:59:23;8.20;84.40
19847;DHT22;10084;50.518;8.588;2024-03-06T01:01:48;8.20;84.50
19847;DHT22;10084;50.518;8.588;2024-03-06T01:04:14;8.30;84.40
19847;DHT22;10084;50.518;8.588;2024-03-06T01:06:40;8.20;84.30
19847;DHT22;10084;50.518;8.588;2024-03-06T01:09:05;8.20;84.20
19847;DHT22;10084;50.518;8.588;2024-03-06T01:11:31;8.20;84.00
19847;DHT22;10084;50.518;8.588;2024-03-06T01:13:57;8.20;83.90
19847;DHT22;10084;50.518;8.588;2024-03-06T01:16:22;8.20;84.00
19847;DHT22;10084;50.518;8.588;2024-03-06T01:18:48;8.10;84.50
19847;DHT22;10084;50.518;8.588;2024-03-06T01:21:14;8.10;84.20
19847;DHT22;10084;50.518;8.588;2024-03-06T01:23:40;8.10;84.40
19847;DHT22;10084;50.518;8.588;2024-03-06T01:26:06;8.10;84.40
19847;DHT22;10084;50.518;8.588;2024-03-06T01:28:32;8.10;84.60
19847;DHT22;10084;50.518;8.588;2024-03-06T01:30:59;8.10;84.70
19847;DHT22;10084;50.518;8.588;2024-03-06T01:33:24;8.10;84.70
19847;DHT22;10084;50.518;8.588;2024-03-06T01:35:50;8.10;84.70
19847;DHT22;10084;50.518;8.588;2024-03-06T01:38:16;8.10;84.60
19847;DHT22;10084;50.518;8.588;2024-03-06T01:40:44;8.10;84.60
19847;DHT22;10084;50.518;8.588;2024-03-06T01:43:21;8.10;84.50
19847;DHT22;10084;50.518;8.588;2024-03-06T01:45:48;8.10;84.60
19847;DHT22;10084;50.518;8.588;2024-03-06T01:48:15;8.10;84.70
19847;DHT22;10084;50.518;8.588;2024-03-06T01:50:41;8.10;84.60
19847;DHT22;10084;50.518;8.588;2024-03-06T01:53:07;8.10;84.60
19847;DHT22;10084;50.518;8.588;2024-03-06T01:55:33;8.10;84.60
19847;DHT22;10084;50.518;8.588;2024-03-06T01:57:59;8.10;84.80
19847;DHT22;10084;50.518;8.588;2024-03-06T02:00:25;8.10;84.80
19847;DHT22;10084;50.518;8.588;2024-03-06T02:02:51;8.10;84.80
19847;DHT22;10084;50.518;8.588;2024-03-06T02:05:17;8.10;84.80
19847;DHT22;10084;50.518;8.588;2024-03-06T02:07:44;8.10;84.70
19847;DHT22;10084;50.518;8.588;2024-03-06T02:10:10;8.10;84.70
19847;DHT22;10084;50.518;8.588;2024-03-06T02:12:38;8.10;84.80
19847;DHT22;10084;50.518;8.588;2024-03-06T02:15:04;8.00;84.90
19847;DHT22;10084;50.518;8.588;2024-03-06T02:17:30;8.00;84.90
19847;DHT22;10084;50.518;8.588;2024-03-06T02:19:56;7.90;84.80
19847;DHT22;10084;50.518;8.588;2024-03-06T02:22:23;7.90;84.90
19847;DHT22;10084;50.518;8.588;2024-03-06T02:24:50;7.80;85.10
19847;DHT22;10084;50.518;8.588;2024-03-06T02:27:15;7.80;85.30
19847;DHT22;10084;50.518;8.588;2024-03-06T02:29:42;7.70;85.40
19847;DHT22;10084;50.518;8.588;2024-03-06T02:32:09;7.70;85.50
19847;DHT22;10084;50.518;8.588;2024-03-06T02:34:38;7.70;86.00
19847;DHT22;10084;50.518;8.588;2024-03-06T02:37:04;7.60;85.80
19847;DHT22;10084;50.518;8.588;2024-03-06T02:39:29;7.60;85.70
19847;DHT22;10084;50.518;8.588;2024-03-06T02:41:55;7.60;85.70
19847;DHT22;10084;50.518;8.588;2024-03-06T02:44:21;7.60;85.60
19847;DHT22;10084;50.518;8.588;2024-03-06T02:46:50;7.60;85.60
19847;DHT22;10084;50.518;8.588;2024-03-06T02:49:16;7.50;85.70
19847;DHT22;10084;50.518;8.588;2024-03-06T02:51:42;7.50;86.50
19847;DHT22;10084;50.518;8.588;2024-03-06T02:54:08;7.50;85.90
19847;DHT22;10084;50.518;8.588;2024-03-06T02:56:34;7.50;85.90
19847;DHT22;10084;50.518;8.588;2024-03-06T02:58:59;7.50;85.90
19847;DHT22;10084;50.518;8.588;2024-03-06T03:01:28;7.60;85.80
19847;DHT22;10084;50.518;8.588;2024-03-06T03:03:55;7.60;85.70
19847;DHT22;10084;50.518;8.588;2024-03-06T03:06:21;7.60;85.60
19847;DHT22;10084;50.518;8.588;2024-03-06T03:08:49;7.50;85.50
19847;DHT22;10084;50.518;8.588;2024-03-06T03:11:15;7.60;85.50
19847;DHT22;10084;50.518;8.588;2024-03-06T03:13:42;7.60;85.50
19847;DHT22;10084;50.518;8.588;2024-03-06T03:16:15;7.60;85.50
19847;DHT22;10084;50.518;8.588;2024-03-06T03:18:43;7.50;85.60
19847;DHT22;10084;50.518;8.588;2024-03-06T03:21:09;7.50;85.60
19847;DHT22;10084;50.518;8.588;2024-03-06T03:23:37;7.60;85.70
19847;DHT22;10084;50.518;8.588;2024-03-06T03:26:03;7.60;85.80
19847;DHT22;10084;50.518;8.588;2024-03-06T03:28:32;7.60;85.70
19847;DHT22;10084;50.518;8.588;2024-03-06T03:30:58;7.60;85.60
19847;DHT22;10084;50.518;8.588;2024-03-06T03:33:24;7.60;85.70
19847;DHT22;10084;50.518;8.588;2024-03-06T03:35:50;7.50;85.70
19847;DHT22;10084;50.518;8.588;2024-03-06T03:38:16;7.50;85.70
19847;DHT22;10084;50.518;8.588;2024-03-06T03:40:42;7.50;85.70
19847;DHT22;10084;50.518;8.588;2024-03-06T03:43:08;7.60;85.70
19847;DHT22;10084;50.518;8.588;2024-03-06T03:45:34;7.50;85.70
19847;DHT22;10084;50.518;8.588;2024-03-06T03:48:02;7.60;85.70
19847;DHT22;10084;50.518;8.588;2024-03-06T03:50:31;7.60;85.70
19847;DHT22;10084;50.518;8.588;2024-03-06T03:52:57;7.60;85.60
19847;DHT22;10084;50.518;8.588;2024-03-06T03:55:27;7.60;85.60
19847;DHT22;10084;50.518;8.588;2024-03-06T03:57:53;7.50;85.70
19847;DHT22;10084;50.518;8.588;2024-03-06T04:00:19;7.50;85.50
19847;DHT22;10084;50.518;8.588;2024-03-06T04:02:44;7.50;85.60
19847;DHT22;10084;50.518;8.588;2024-03-06T04:05:10;7.50;85.70
19847;DHT22;10084;50.518;8.588;2024-03-06T04:07:36;7.50;85.80
19847;DHT22;10084;50.518;8.588;2024-03-06T04:10:03;7.50;85.90
19847;DHT22;10084;50.518;8.588;2024-03-06T04:12:29;7.50;85.80
19847;DHT22;10084;50.518;8.588;2024-03-06T04:14:54;7.50;85.80
19847;DHT22;10084;50.518;8.588;2024-03-06T04:17:20;7.40;85.60
19847;DHT22;10084;50.518;8.588;2024-03-06T04:19:46;7.40;85.50
19847;DHT22;10084;50.518;8.588;2024-03-06T04:22:14;7.40;85.40
19847;DHT22;10084;50.518;8.588;2024-03-06T04:24:43;7.30;85.20
19847;DHT22;10084;50.518;8.588;2024-03-06T04:27:08;7.30;85.30
19847;DHT22;10084;50.518;8.588;2024-03-06T04:29:34;7.20;85.30
19847;DHT22;10084;50.518;8.588;2024-03-06T04:32:00;7.10;85.40
19847;DHT22;10084;50.518;8.588;2024-03-06T04:34:25;7.10;85.50
19847;DHT22;10084;50.518;8.588;2024-03-06T04:36:51;7.00;85.70
19847;DHT22;10084;50.518;8.588;2024-03-06T04:39:17;7.00;85.80
19847;DHT22;10084;50.518;8.588;2024-03-06T04:41:42;6.90;86.00
19847;DHT22;10084;50.518;8.588;2024-03-06T04:44:08;6.90;86.10
19847;DHT22;10084;50.518;8.588;2024-03-06T04:46:34;6.90;86.20
19847;DHT22;10084;50.518;8.588;2024-03-06T04:49:00;6.80;86.30
19847;DHT22;10084;50.518;8.588;2024-03-06T04:51:25;6.80;86.50
19847;DHT22;10084;50.518;8.588;2024-03-06T04:53:51;6.80;86.70
19847;DHT22;10084;50.518;8.588;2024-03-06T04:56:17;6.80;86.90
19847;DHT22;10084;50.518;8.588;2024-03-06T04:58:44;6.90;87.10
19847;DHT22;10084;50.518;8.588;2024-03-06T05:01:12;6.90;87.10
19847;DHT22;10084;50.518;8.588;2024-03-06T05:03:38;7.00;87.40
19847;DHT22;10084;50.518;8.588;2024-03-06T05:06:05;7.00;87.40
19847;DHT22;10084;50.518;8.588;2024-03-06T05:08:31;7.10;87.50
19847;DHT22;10084;50.518;8.588;2024-03-06T05:10:56;7.10;87.50
19847;DHT22;10084;50.518;8.588;2024-03-06T05:13:22;7.20;87.40
19847;DHT22;10084;50.518;8.588;2024-03-06T05:15:48;7.20;87.40
19847;DHT22;10084;50.518;8.588;2024-03-06T05:18:14;7.20;87.20
19847;DHT22;10084;50.518;8.588;2024-03-06T05:20:40;7.30;87.40
19847;DHT22;10084;50.518;8.588;2024-03-06T05:23:05;7.30;87.40
19847;DHT22;10084;50.518;8.588;2024-03-06T05:25:31;7.40;87.30
19847;DHT22;10084;50.518;8.588;2024-03-06T05:27:57;7.40;87.00
19847;DHT22;10084;50.518;8.588;2024-03-06T05:30:23;7.40;86.90
19847;DHT22;10084;50.518;8.588;2024-03-06T05:32:48;7.30;86.70
19847;DHT22;10084;50.518;8.588;2024-03-06T05:35:14;7.30;86.80
19847;DHT22;10084;50.518;8.588;2024-03-06T05:37:40;7.20;86.90
19847;DHT22;10084;50.518;8.588;2024-03-06T05:40:06;7.20;86.90
19847;DHT22;10084;50.518;8.588;2024-03-06T05:42:32;7.20;87.20
19847;DHT22;10084;50.518;8.588;2024-03-06T05:44:57;7.20;87.40
19847;DHT22;10084;50.518;8.588;2024-03-06T05:47:31;7.20;87.70
19847;DHT22;10084;50.518;8.588;2024-03-06T05:49:57;7.20;87.90
19847;DHT22;10084;50.518;8.588;2024-03-06T05:52:23;7.20;88.00
19847;DHT22;10084;50.518;8.588;2024-03-06T05:54:49;7.30;88.10
19847;DHT22;10084;50.518;8.588;2024-03-06T05:57:16;7.30;87.90
19847;DHT22;10084;50.518;8.588;2024-03-06T05:59:42;7.20;88.00
19847;DHT22;10084;50.518;8.588;2024-03-06T06:02:07;7.20;88.20
19847;DHT22;10084;50.518;8.588;2024-03-06T06:04:33;7.30;88.40
19847;DHT22;10084;50.518;8.588;2024-03-06T06:06:59;7.30;88.30
19847;DHT22;10084;50.518;8.588;2024-03-06T06:09:24;7.30;88.40
19847;DHT22;10084;50.518;8.588;2024-03-06T06:11:50;7.30;88.30
19847;DHT22;10084;50.518;8.588;2024-03-06T06:14:16;7.30;88.20
19847;DHT22;10084;50.518;8.588;2024-03-06T06:16:42;7.30;88.20
19847;DHT22;10084;50.518;8.588;2024-03-06T06:19:08;7.30;88.20
19847;DHT22;10084;50.518;8.588;2024-03-06T06:21:34;7.30;88.20
19847;DHT22;10084;50.518;8.588;2024-03-06T06:24:04;7.30;88.20
19847;DHT22;10084;50.518;8.588;2024-03-06T06:26:31;7.30;88.30
19847;DHT22;10084;50.518;8.588;2024-03-06T06:28:57;7.30;88.30
19847;DHT22;10084;50.518;8.588;2024-03-06T06:31:24;7.30;88.30
19847;DHT22;10084;50.518;8.588;2024-03-06T06:33:51;7.30;88.40
19847;DHT22;10084;50.518;8.588;2024-03-06T06:36:17;7.30;88.50
19847;DHT22;10084;50.518;8.588;2024-03-06T06:38:43;7.30;88.50
19847;DHT22;10084;50.518;8.588;2024-03-06T06:41:10;7.30;88.60
19847;DHT22;10084;50.518;8.588;2024-03-06T06:43:36;7.30;88.60
19847;DHT22;10084;50.518;8.588;2024-03-06T06:46:01;7.30;88.60
19847;DHT22;10084;50.518;8.588;2024-03-06T06:48:30;7.40;88.90
19847;DHT22;10084;50.518;8.588;2024-03-06T06:50:56;7.40;88.90
19847;DHT22;10084;50.518;8.588;2024-03-06T06:53:21;7.40;88.90
19847;DHT22;10084;50.518;8.588;2024-03-06T06:55:47;7.40;89.00
19847;DHT22;10084;50.518;8.588;2024-03-06T06:58:13;7.50;89.10
19847;DHT22;10084;50.518;8.588;2024-03-06T07:00:38;7.50;88.90
19847;DHT22;10084;50.518;8.588;2024-03-06T07:03:04;7.50;88.90
19847;DHT22;10084;50.518;8.588;2024-03-06T07:05:30;7.50;89.00
19847;DHT22;10084;50.518;8.588;2024-03-06T07:07:56;7.50;89.40
19847;DHT22;10084;50.518;8.588;2024-03-06T07:10:22;7.60;89.90
19847;DHT22;10084;50.518;8.588;2024-03-06T07:12:49;7.60;90.00
19847;DHT22;10084;50.518;8.588;2024-03-06T07:15:14;7.70;90.00
19847;DHT22;10084;50.518;8.588;2024-03-06T07:17:40;7.70;89.70
19847;DHT22;10084;50.518;8.588;2024-03-06T07:20:06;7.80;89.90
19847;DHT22;10084;50.518;8.588;2024-03-06T07:22:34;7.80;90.00
19847;DHT22;10084;50.518;8.588;2024-03-06T07:25:00;7.90;90.10
19847;DHT22;10084;50.518;8.588;2024-03-06T07:27:27;8.00;90.20
19847;DHT22;10084;50.518;8.588;2024-03-06T07:29:53;8.10;90.00
19847;DHT22;10084;50.518;8.588;2024-03-06T07:32:19;8.10;90.00
19847;DHT22;10084;50.518;8.588;2024-03-06T07:34:45;8.20;90.00
19847;DHT22;10084;50.518;8.588;2024-03-06T07:37:11;8.20;90.10
19847;DHT22;10084;50.518;8.588;2024-03-06T07:39:37;8.30;90.00
19847;DHT22;10084;50.518;8.588;2024-03-06T07:42:03;8.40;90.10
19847;DHT22;10084;50.518;8.588;2024-03-06T07:44:29;8.50;90.10
19847;DHT22;10084;50.518;8.588;2024-03-06T07:46:55;8.50;90.00
19847;DHT22;10084;50.518;8.588;2024-03-06T07:49:20;8.60;89.80
19847;DHT22;10084;50.518;8.588;2024-03-06T07:51:49;8.60;89.90
19847;DHT22;10084;50.518;8.588;2024-03-06T07:54:15;8.70;90.00
19847;DHT22;10084;50.518;8.588;2024-03-06T07:56:40;8.80;90.10
19847;DHT22;10084;50.518;8.588;2024-03-06T07:59:06;8.90;90.00
19847;DHT22;10084;50.518;8.588;2024-03-06T08:01:32;9.00;90.00
19847;DHT22;10084;50.518;8.588;2024-03-06T08:03:58;9.10;90.10
19847;DHT22;10084;50.518;8.588;2024-03-06T08:06:24;9.20;90.10
19847;DHT22;10084;50.518;8.588;2024-03-06T08:08:50;9.30;90.10
19847;DHT22;10084;50.518;8.588;2024-03-06T08:11:17;9.40;89.90
19847;DHT22;10084;50.518;8.588;2024-03-06T08:13:43;9.40;89.40
19847;DHT22;10084;50.518;8.588;2024-03-06T08:16:09;9.50;88.90
19847;DHT22;10084;50.518;8.588;2024-03-06T08:18:36;9.40;88.50
19847;DHT22;10084;50.518;8.588;2024-03-06T08:21:02;9.40;88.60
19847;DHT22;10084;50.518;8.588;2024-03-06T08:23:31;9.40;88.70
19847;DHT22;10084;50.518;8.588;2024-03-06T08:25:56;9.40;88.40
19847;DHT22;10084;50.518;8.588;2024-03-06T08:28:22;9.40;88.40
19847;DHT22;10084;50.518;8.588;2024-03-06T08:30:48;9.40;88.50
19847;DHT22;10084;50.518;8.588;2024-03-06T08:33:13;9.40;88.80
19847;DHT22;10084;50.518;8.588;2024-03-06T08:35:39;9.40;88.30
19847;DHT22;10084;50.518;8.588;2024-03-06T08:38:05;9.50;88.30
19847;DHT22;10084;50.518;8.588;2024-03-06T08:40:32;9.50;87.90
19847;DHT22;10084;50.518;8.588;2024-03-06T08:42:58;9.50;88.00
19847;DHT22;10084;50.518;8.588;2024-03-06T08:45:24;9.50;88.80
19847;DHT22;10084;50.518;8.588;2024-03-06T08:47:49;9.70;90.30
19847;DHT22;10084;50.518;8.588;2024-03-06T08:50:15;10.00;90.80
19847;DHT22;10084;50.518;8.588;2024-03-06T08:52:42;10.50;91.00
19847;DHT22;10084;50.518;8.588;2024-03-06T08:55:08;11.00;91.10
19847;DHT22;10084;50.518;8.588;2024-03-06T08:57:36;11.40;90.40
19847;DHT22;10084;50.518;8.588;2024-03-06T09:00:03;11.60;89.00
19847;DHT22;10084;50.518;8.588;2024-03-06T09:02:30;11.80;87.60
19847;DHT22;10084;50.518;8.588;2024-03-06T09:04:56;11.80;86.20
19847;DHT22;10084;50.518;8.588;2024-03-06T09:07:21;11.70;85.20
19847;DHT22;10084;50.518;8.588;2024-03-06T09:09:50;11.60;85.00
19847;DHT22;10084;50.518;8.588;2024-03-06T09:12:17;11.50;84.60
19847;DHT22;10084;50.518;8.588;2024-03-06T09:14:43;11.30;84.30
19847;DHT22;10084;50.518;8.588;2024-03-06T09:17:10;11.20;85.00
19847;DHT22;10084;50.518;8.588;2024-03-06T09:19:38;11.30;85.90
19847;DHT22;10084;50.518;8.588;2024-03-06T09:22:04;11.50;86.90
19847;DHT22;10084;50.518;8.588;2024-03-06T09:24:30;11.80;87.40
19847;DHT22;10084;50.518;8.588;2024-03-06T09:26:56;12.20;88.10
19847;DHT22;10084;50.518;8.588;2024-03-06T09:29:21;12.90;90.30
19847;DHT22;10084;50.518;8.588;2024-03-06T09:31:47;13.90;90.20
19847;DHT22;10084;50.518;8.588;2024-03-06T09:34:14;14.70;87.80
19847;DHT22;10084;50.518;8.588;2024-03-06T09:36:48;15.60;86.60
19847;DHT22;10084;50.518;8.588;2024-03-06T09:39:17;16.30;83.70
19847;DHT22;10084;50.518;8.588;2024-03-06T09:41:52;16.70;81.70
19847;DHT22;10084;50.518;8.588;2024-03-06T09:44:18;16.90;80.60
19847;DHT22;10084;50.518;8.588;2024-03-06T09:46:46;17.00;79.90
19847;DHT22;10084;50.518;8.588;2024-03-06T09:49:18;17.00;79.90
19847;DHT22;10084;50.518;8.588;2024-03-06T09:51:46;17.10;79.80
19847;DHT22;10084;50.518;8.588;2024-03-06T09:54:13;17.10;79.60
19847;DHT22;10084;50.518;8.588;2024-03-06T09:56:46;17.10;79.10
19847;DHT22;10084;50.518;8.588;2024-03-06T09:59:12;17.10;79.30
19847;DHT22;10084;50.518;8.588;2024-03-06T10:01:57;17.20;79.00
19847;DHT22;10084;50.518;8.588;2024-03-06T10:04:26;17.50;79.90
19847;DHT22;10084;50.518;8.588;2024-03-06T10:06:57;18.30;79.20
19847;DHT22;10084;50.518;8.588;2024-03-06T10:09:23;18.80;77.40
19847;DHT22;10084;50.518;8.588;2024-03-06T10:11:49;19.00;76.30
19847;DHT22;10084;50.518;8.588;2024-03-06T10:14:15;19.20;75.30
19847;DHT22;10084;50.518;8.588;2024-03-06T10:16:56;19.40;74.70
19847;DHT22;10084;50.518;8.588;2024-03-06T10:19:23;19.50;74.10
19847;DHT22;10084;50.518;8.588;2024-03-06T10:21:50;19.50;74.00
19847;DHT22;10084;50.518;8.588;2024-03-06T10:24:23;19.50;73.70
19847;DHT22;10084;50.518;8.588;2024-03-06T10:26:50;19.50;73.50
19847;DHT22;10084;50.518;8.588;2024-03-06T10:29:20;19.60;73.50
19847;DHT22;10084;50.518;8.588;2024-03-06T10:31:57;19.80;72.90
19847;DHT22;10084;50.518;8.588;2024-03-06T10:34:29;19.90;72.00
19847;DHT22;10084;50.518;8.588;2024-03-06T10:37:02;20.00;72.00
19847;DHT22;10084;50.518;8.588;2024-03-06T10:39:36;20.20;71.50
19847;DHT22;10084;50.518;8.588;2024-03-06T10:42:06;20.50;71.20
19847;DHT22;10084;50.518;8.588;2024-03-06T10:44:34;20.80;70.70
19847;DHT22;10084;50.518;8.588;2024-03-06T10:47:05;21.10;69.60
19847;DHT22;10084;50.518;8.588;2024-03-06T10:49:32;21.30;68.80
19847;DHT22;10084;50.518;8.588;2024-03-06T10:52:06;21.40;68.30
19847;DHT22;10084;50.518;8.588;2024-03-06T10:54:33;21.30;67.80
19847;DHT22;10084;50.518;8.588;2024-03-06T10:57:04;21.30;67.80
19847;DHT22;10084;50.518;8.588;2024-03-06T10:59:31;21.50;67.90
19847;DHT22;10084;50.518;8.588;2024-03-06T11:01:58;21.90;67.00
19847;DHT22;10084;50.518;8.588;2024-03-06T11:04:27;22.10;66.40
19847;DHT22;10084;50.518;8.588;2024-03-06T11:06:58;22.40;64.50
19847;DHT22;10084;50.518;8.588;2024-03-06T11:09:26;22.60;63.10
19847;DHT22;10084;50.518;8.588;2024-03-06T11:11:53;22.50;62.20
19847;DHT22;10084;50.518;8.588;2024-03-06T11:14:23;22.50;62.80
19847;DHT22;10084;50.518;8.588;2024-03-06T11:19:30;22.10;62.10
19847;DHT22;10084;50.518;8.588;2024-03-06T11:21:56;21.40;62.50
19847;DHT22;10084;50.518;8.588;2024-03-06T11:24:32;20.80;63.10
19847;DHT22;10084;50.518;8.588;2024-03-06T11:27:03;20.10;63.00
19847;DHT22;10084;50.518;8.588;2024-03-06T11:32:37;19.20;65.20
19847;DHT22;10084;50.518;8.588;2024-03-06T11:35:04;20.10;65.00
19847;DHT22;10084;50.518;8.588;2024-03-06T11:37:33;20.50;63.40
19847;DHT22;10084;50.518;8.588;2024-03-06T11:40:00;20.40;62.90
19847;DHT22;10084;50.518;8.588;2024-03-06T11:42:34;20.30;62.50
19847;DHT22;10084;50.518;8.588;2024-03-06T11:45:16;19.90;62.50
19847;DHT22;10084;50.518;8.588;2024-03-06T11:48:01;19.50;62.60
19847;DHT22;10084;50.518;8.588;2024-03-06T11:50:28;19.50;63.60
19847;DHT22;10084;50.518;8.588;2024-03-06T11:52:57;20.30;62.90
19847;DHT22;10084;50.518;8.588;2024-03-06T11:55:23;21.40;61.20
19847;DHT22;10084;50.518;8.588;2024-03-06T11:57:52;22.40;59.80
19847;DHT22;10084;50.518;8.588;2024-03-06T12:00:24;23.40;58.50
19847;DHT22;10084;50.518;8.588;2024-03-06T12:02:52;24.20;57.30
19847;DHT22;10084;50.518;8.588;2024-03-06T12:05:18;24.50;56.60
19847;DHT22;10084;50.518;8.588;2024-03-06T12:07:48;25.00;55.50
19847;DHT22;10084;50.518;8.588;2024-03-06T12:10:14;24.90;54.70
19847;DHT22;10084;50.518;8.588;2024-03-06T12:12:43;24.30;54.80
19847;DHT22;10084;50.518;8.588;2024-03-06T12:15:11;23.40;62.80
19847;DHT22;10084;50.518;8.588;2024-03-06T12:17:49;22.40;72.80
19847;DHT22;10084;50.518;8.588;2024-03-06T12:20:17;21.60;70.80
19847;DHT22;10084;50.518;8.588;2024-03-06T12:22:50;21.70;67.10
19847;DHT22;10084;50.518;8.588;2024-03-06T12:25:20;22.40;65.60
19847;DHT22;10084;50.518;8.588;2024-03-06T12:27:49;22.80;59.80
19847;DHT22;10084;50.518;8.588;2024-03-06T12:30:21;23.10;57.70
19847;DHT22;10084;50.518;8.588;2024-03-06T12:33:01;23.50;57.70
19847;DHT22;10084;50.518;8.588;2024-03-06T12:35:30;23.40;55.60
19847;DHT22;10084;50.518;8.588;2024-03-06T12:37:56;23.40;54.80
19847;DHT22;10084;50.518;8.588;2024-03-06T12:40:22;23.20;53.80
19847;DHT22;10084;50.518;8.588;2024-03-06T12:42:48;23.10;52.50
19847;DHT22;10084;50.518;8.588;2024-03-06T12:45:15;23.30;56.80
19847;DHT22;10084;50.518;8.588;2024-03-06T12:47:45;23.30;56.30
19847;DHT22;10084;50.518;8.588;2024-03-06T12:50:13;22.70;57.30
19847;DHT22;10084;50.518;8.588;2024-03-06T12:52:40;21.80;71.90
19847;DHT22;10084;50.518;8.588;2024-03-06T12:55:07;20.60;72.00
19847;DHT22;10084;50.518;8.588;2024-03-06T12:57:33;19.70;62.90
19847;DHT22;10084;50.518;8.588;2024-03-06T12:59:59;19.00;75.40
19847;DHT22;10084;50.518;8.588;2024-03-06T13:02:25;18.40;77.10
19847;DHT22;10084;50.518;8.588;2024-03-06T13:04:51;18.00;77.60
19847;DHT22;10084;50.518;8.588;2024-03-06T13:07:17;17.50;76.70
19847;DHT22;10084;50.518;8.588;2024-03-06T13:09:43;17.20;68.20
19847;DHT22;10084;50.518;8.588;2024-03-06T13:12:09;16.60;68.00
19847;DHT22;10084;50.518;8.588;2024-03-06T13:14:34;16.10;68.70
19847;DHT22;10084;50.518;8.588;2024-03-06T13:17:00;16.00;69.20
19847;DHT22;10084;50.518;8.588;2024-03-06T13:19:26;16.00;69.60
19847;DHT22;10084;50.518;8.588;2024-03-06T13:21:51;15.90;66.40
19847;DHT22;10084;50.518;8.588;2024-03-06T13:24:18;15.80;69.60
19847;DHT22;10084;50.518;8.588;2024-03-06T13:26:45;15.70;66.80
19847;DHT22;10084;50.518;8.588;2024-03-06T13:29:11;15.70;66.70
19847;DHT22;10084;50.518;8.588;2024-03-06T13:31:37;15.60;66.40
19847;DHT22;10084;50.518;8.588;2024-03-06T13:34:03;15.70;66.30
19847;DHT22;10084;50.518;8.588;2024-03-06T13:36:30;16.50;65.60
19847;DHT22;10084;50.518;8.588;2024-03-06T13:38:56;17.50;63.10
19847;DHT22;10084;50.518;8.588;2024-03-06T13:41:22;18.00;56.00
19847;DHT22;10084;50.518;8.588;2024-03-06T13:43:48;18.10;55.70
19847;DHT22;10084;50.518;8.588;2024-03-06T13:46:14;18.10;55.20
19847;DHT22;10084;50.518;8.588;2024-03-06T13:48:40;18.10;55.30
19847;DHT22;10084;50.518;8.588;2024-03-06T13:51:06;18.90;55.00
19847;DHT22;10084;50.518;8.588;2024-03-06T13:53:31;19.30;53.80
19847;DHT22;10084;50.518;8.588;2024-03-06T13:55:57;19.50;53.00
19847;DHT22;10084;50.518;8.588;2024-03-06T13:58:23;19.60;53.10
19847;DHT22;10084;50.518;8.588;2024-03-06T14:00:49;20.00;51.80
19847;DHT22;10084;50.518;8.588;2024-03-06T14:03:15;19.90;50.00
19847;DHT22;10084;50.518;8.588;2024-03-06T14:05:40;19.20;50.60
19847;DHT22;10084;50.518;8.588;2024-03-06T14:08:06;18.50;51.60
19847;DHT22;10084;50.518;8.588;2024-03-06T14:10:33;17.90;53.00
19847;DHT22;10084;50.518;8.588;2024-03-06T14:13:00;17.50;53.80
19847;DHT22;10084;50.518;8.588;2024-03-06T14:15:25;17.20;54.60
19847;DHT22;10084;50.518;8.588;2024-03-06T14:17:52;16.90;55.00
19847;DHT22;10084;50.518;8.588;2024-03-06T14:20:20;16.60;55.10
19847;DHT22;10084;50.518;8.588;2024-03-06T14:22:46;16.40;55.80
19847;DHT22;10084;50.518;8.588;2024-03-06T14:25:12;16.10;56.10
19847;DHT22;10084;50.518;8.588;2024-03-06T14:27:38;15.80;56.10
19847;DHT22;10084;50.518;8.588;2024-03-06T14:30:05;15.40;56.80
19847;DHT22;10084;50.518;8.588;2024-03-06T14:32:32;15.00;57.50
19847;DHT22;10084;50.518;8.588;2024-03-06T14:34:58;14.70;58.00
19847;DHT22;10084;50.518;8.588;2024-03-06T14:37:24;14.40;58.60
19847;DHT22;10084;50.518;8.588;2024-03-06T14:39:50;14.20;58.90
19847;DHT22;10084;50.518;8.588;2024-03-06T14:42:16;14.10;59.00
19847;DHT22;10084;50.518;8.588;2024-03-06T14:44:42;13.90;59.20
19847;DHT22;10084;50.518;8.588;2024-03-06T14:47:09;13.70;59.60
19847;DHT22;10084;50.518;8.588;2024-03-06T14:49:35;13.70;60.10
19847;DHT22;10084;50.518;8.588;2024-03-06T14:52:01;13.70;60.30
19847;DHT22;10084;50.518;8.588;2024-03-06T14:54:28;13.80;60.40
19847;DHT22;10084;50.518;8.588;2024-03-06T14:56:54;13.90;60.50
19847;DHT22;10084;50.518;8.588;2024-03-06T14:59:21;14.10;60.70
19847;DHT22;10084;50.518;8.588;2024-03-06T15:01:47;14.30;60.70
19847;DHT22;10084;50.518;8.588;2024-03-06T15:04:13;14.40;60.50
19847;DHT22;10084;50.518;8.588;2024-03-06T15:06:39;14.50;60.30
19847;DHT22;10084;50.518;8.588;2024-03-06T15:09:05;14.60;60.30
19847;DHT22;10084;50.518;8.588;2024-03-06T15:11:31;14.60;60.30
19847;DHT22;10084;50.518;8.588;2024-03-06T15:13:59;14.60;60.30
19847;DHT22;10084;50.518;8.588;2024-03-06T15:16:25;14.70;60.40
19847;DHT22;10084;50.518;8.588;2024-03-06T15:18:50;14.60;60.20
19847;DHT22;10084;50.518;8.588;2024-03-06T15:21:19;14.70;60.20
19847;DHT22;10084;50.518;8.588;2024-03-06T15:23:45;14.60;60.10
19847;DHT22;10084;50.518;8.588;2024-03-06T15:26:11;14.50;60.20
19847;DHT22;10084;50.518;8.588;2024-03-06T15:28:37;14.50;61.00
19847;DHT22;10084;50.518;8.588;2024-03-06T15:31:03;14.50;60.20
19847;DHT22;10084;50.518;8.588;2024-03-06T15:33:30;14.30;60.20
19847;DHT22;10084;50.518;8.588;2024-03-06T15:35:56;14.20;60.20
19847;DHT22;10084;50.518;8.588;2024-03-06T15:38:21;14.10;60.30
19847;DHT22;10084;50.518;8.588;2024-03-06T15:40:48;13.90;60.50
19847;DHT22;10084;50.518;8.588;2024-03-06T15:43:16;13.70;60.70